Time;durP1;ratioP1;P1;durP2;ratioP2;P2;SDS_P1;SDS_P2;PMS_P1;PMS_P2;Temp;Humidity;BMP_temperature;BMP_pressure;BME280_temperature;BME280_humidity;BME280_pressure;Samples;Min_cycle;Max_cycle;Signal;HPM_P1;HPM_P2
2021/11/08 00:02:08;;;;;;;;;5.33;4.67;;;;;17.60;51.31;98271.88;4823019;29;102643;-89
2021/11/08 00:04:35;;;;;;;;;5.00;5.00;;;;;17.62;50.87;98270.53;4827288;29;102192;-89
2021/11/08 00:07:03;;;;;;;;;7.33;6.00;;;;;17.59;50.71;98268.31;4820862;28;104409;-89
2021/11/08 00:09:30;;;;;;;;;7.00;6.67;;;;;17.58;49.91;98279.44;4821618;28;103318;-89
2021/11/08 00:11:58;;;;;;;;;6.00;5.00;;;;;17.58;50.69;98274.00;4811058;29;102235;-88
2021/11/08 00:14:26;;;;;;;;;5.67;4.67;;;;;17.57;50.86;98280.53;4804054;29;103889;-89
2021/11/08 00:17:16;;;;;;;;;6.33;6.00;;;;;17.56;50.02;98284.38;4818205;28;104244;-89
2021/11/08 00:19:56;;;;;;;;;6.00;5.00;;;;;17.55;50.75;98286.28;4824749;29;102423;-89
2021/11/08 00:22:23;;;;;;;;;5.00;4.00;;;;;17.52;50.72;98283.19;4823632;29;102609;-89
2021/11/08 00:24:53;;;;;;;;;5.00;4.67;;;;;17.53;50.91;98282.94;4829171;29;102449;-88
2021/11/08 00:27:20;;;;;;;;;6.00;6.00;;;;;17.52;50.60;98289.50;4829478;29;104068;-89
2021/11/08 00:29:49;;;;;;;;;6.00;5.33;;;;;17.52;50.17;98289.50;4835306;28;104022;-89
2021/11/08 00:32:18;;;;;;;;;4.33;4.33;;;;;17.52;50.97;98275.81;4819197;29;106970;-89
2021/11/08 00:34:46;;;;;;;;;6.00;5.67;;;;;17.51;50.91;98293.31;4822997;28;102604;-88
2021/11/08 00:37:14;;;;;;;;;7.00;5.33;;;;;17.50;50.92;98304.50;4831846;29;103987;-88
2021/11/08 00:39:41;;;;;;;;;5.00;5.00;;;;;17.48;50.38;98298.44;4822874;29;102103;-89
2021/11/08 00:42:08;;;;;;;;;5.33;5.00;;;;;17.49;50.80;98306.41;4827196;28;102535;-89
2021/11/08 00:44:35;;;;;;;;;5.00;5.00;;;;;17.47;50.39;98302.28;4825443;29;102449;-89
2021/11/08 00:47:07;;;;;;;;;6.00;5.00;;;;;17.46;50.74;98309.66;4807891;29;104439;-88
2021/11/08 00:49:36;;;;;;;;;6.00;6.00;;;;;17.48;50.58;98314.84;4825631;28;102345;-89
2021/11/08 00:52:05;;;;;;;;;5.00;5.00;;;;;17.45;50.44;98313.47;4825982;29;102495;-88
2021/11/08 00:54:32;;;;;;;;;5.33;5.00;;;;;17.45;51.30;98305.25;4829031;28;103173;-88
2021/11/08 00:57:00;;;;;;;;;4.67;4.33;;;;;17.44;50.44;98311.81;4813435;28;104987;-88
2021/11/08 00:59:27;;;;;;;;;4.00;2.33;;;;;17.42;50.13;98314.78;4829293;28;102792;-89
2021/11/08 01:01:59;;;;;;;;;6.00;6.00;;;;;17.42;50.71;98313.97;4812478;28;104204;-89
2021/11/08 01:04:26;;;;;;;;;9.00;7.00;;;;;17.40;50.89;98313.38;4813275;28;104309;-89
2021/11/08 01:06:59;;;;;;;;;7.00;6.33;;;;;17.41;50.46;98320.50;4798820;29;103370;-88
2021/11/08 01:09:28;;;;;;;;;4.00;4.00;;;;;17.41;50.29;98317.78;4806756;29;102814;-89
2021/11/08 01:11:56;;;;;;;;;6.00;4.67;;;;;17.40;50.68;98321.59;4805410;29;102504;-89
2021/11/08 01:14:24;;;;;;;;;5.00;5.00;;;;;17.39;50.53;98320.75;4811490;29;102468;-89
2021/11/08 01:16:57;;;;;;;;;5.67;5.67;;;;;17.38;50.58;98326.50;4800748;29;104724;-88
2021/11/08 01:19:27;;;;;;;;;5.00;5.00;;;;;17.38;51.33;98323.75;4791915;29;103215;-89
2021/11/08 01:22:14;;;;;;;;;5.33;3.33;;;;;17.36;50.88;98329.47;4800106;29;102486;-88
2021/11/08 01:24:41;;;;;;;;;7.67;6.67;;;;;17.35;51.34;98340.63;4806528;29;102600;-89
2021/11/08 01:27:09;;;;;;;;;4.67;4.67;;;;;17.34;50.12;98336.25;4776198;29;104090;-89
2021/11/08 01:29:36;;;;;;;;;6.00;5.00;;;;;17.33;51.01;98337.34;4806590;29;103145;-87
2021/11/08 01:32:05;;;;;;;;;6.00;5.33;;;;;17.34;50.64;98333.50;4777635;29;102563;-88
2021/11/08 01:34:33;;;;;;;;;7.00;6.33;;;;;17.31;50.60;98329.38;4789008;29;102705;-88
2021/11/08 01:37:01;;;;;;;;;7.00;5.67;;;;;17.30;50.65;98338.66;4790934;29;102923;-88
2021/11/08 01:39:46;;;;;;;;;6.67;6.00;;;;;17.31;50.96;98336.75;4800463;29;105042;-88
2021/11/08 01:42:14;;;;;;;;;5.33;4.33;;;;;17.30;50.74;98329.63;4826696;29;101986;-89
2021/11/08 01:44:41;;;;;;;;;7.00;6.00;;;;;17.30;50.94;98338.66;4823897;29;102524;-88
2021/11/08 01:47:09;;;;;;;;;7.00;5.00;;;;;17.27;50.99;98338.34;4810457;29;103455;-88
2021/11/08 01:49:36;;;;;;;;;7.67;5.00;;;;;17.28;50.54;98340.00;4820067;29;110667;-88
2021/11/08 01:52:04;;;;;;;;;6.00;6.00;;;;;17.26;50.49;98348.44;4810154;29;102917;-88
2021/11/08 01:54:32;;;;;;;;;5.00;4.00;;;;;17.25;50.78;98362.34;4807498;29;101371;-88
2021/11/08 01:56:59;;;;;;;;;7.00;4.00;;;;;17.25;51.51;98357.72;4832267;29;104046;-88
2021/11/08 01:59:26;;;;;;;;;5.33;4.33;;;;;17.25;50.79;98356.88;4820612;29;112071;-89
2021/11/08 02:01:55;;;;;;;;;5.00;4.67;;;;;17.22;50.48;98357.38;4811487;29;102718;-88
2021/11/08 02:04:24;;;;;;;;;5.00;5.00;;;;;17.23;50.83;98359.88;4800201;29;102618;-88
2021/11/08 02:06:55;;;;;;;;;6.33;4.33;;;;;17.22;50.45;98357.38;4821691;28;103355;-88
2021/11/08 02:09:22;;;;;;;;;6.33;5.67;;;;;17.21;50.51;98361.19;4804782;28;102115;-86
2021/11/08 02:11:52;;;;;;;;;8.00;5.00;;;;;17.22;50.69;98360.94;4815072;29;102557;-86
2021/11/08 02:14:20;;;;;;;;;4.00;4.00;;;;;17.21;50.55;98366.66;4817874;28;102469;-88
2021/11/08 02:16:49;;;;;;;;;5.00;5.00;;;;;17.20;51.12;98365.81;4848782;28;103045;-89
2021/11/08 02:19:18;;;;;;;;;6.67;5.00;;;;;17.20;50.85;98371.28;4841949;28;102764;-89
2021/11/08 02:21:46;;;;;;;;;6.67;5.00;;;;;17.20;50.94;98378.69;4838702;29;101555;-89
2021/11/08 02:24:17;;;;;;;;;4.00;3.00;;;;;17.17;50.86;98370.97;4839504;28;102035;-89
2021/11/08 02:26:45;;;;;;;;;6.00;5.00;;;;;17.19;50.53;98371.56;4833863;29;103343;-89
2021/11/08 02:29:13;;;;;;;;;6.67;5.00;;;;;17.17;50.34;98387.34;4824338;28;102182;-89
2021/11/08 02:31:40;;;;;;;;;5.00;5.00;;;;;17.17;50.68;98387.34;4816110;28;103660;-88
2021/11/08 02:34:07;;;;;;;;;6.00;5.00;;;;;17.16;50.84;98380.22;4822294;29;102455;-84
2021/11/08 02:36:41;;;;;;;;;4.00;4.00;;;;;17.14;50.60;98393.31;4798814;29;105016;-84
2021/11/08 02:39:17;;;;;;;;;5.00;4.67;;;;;17.15;51.03;98389.53;4805318;28;102448;-84
2021/11/08 02:41:44;;;;;;;;;3.67;3.67;;;;;17.14;51.04;98390.59;4787437;29;102602;-84
2021/11/08 02:44:12;;;;;;;;;5.00;4.00;;;;;17.12;50.73;98384.53;4803036;29;102657;-84
2021/11/08 02:46:42;;;;;;;;;4.67;4.67;;;;;17.13;50.99;98389.75;4816902;28;104252;-85
2021/11/08 02:49:12;;;;;;;;;5.00;5.00;;;;;17.13;50.75;98399.88;4821101;28;102473;-84
2021/11/08 02:51:45;;;;;;;;;6.00;5.33;;;;;17.12;50.60;98390.84;4819759;29;102795;-84
2021/11/08 02:54:24;;;;;;;;;5.00;5.00;;;;;17.11;51.40;98391.91;4825728;28;103129;-85
2021/11/08 02:56:53;;;;;;;;;7.00;5.67;;;;;17.11;50.39;98393.84;4793837;29;109102;-85
2021/11/08 02:59:22;;;;;;;;;6.00;5.00;;;;;17.13;50.90;98394.41;4818105;29;102357;-85
2021/11/08 03:01:54;;;;;;;;;4.00;3.00;;;;;17.10;51.01;98392.16;4820369;28;102189;-85
2021/11/08 03:04:27;;;;;;;;;5.00;5.00;;;;;17.09;50.82;98401.44;4820863;29;102212;-85
2021/11/08 03:06:58;;;;;;;;;4.67;4.67;;;;;17.10;50.99;98403.09;4818640;29;104063;-84
2021/11/08 03:09:34;;;;;;;;;5.67;5.00;;;;;17.08;50.38;98402.50;4822587;29;102160;-84
2021/11/08 03:12:10;;;;;;;;;5.00;5.00;;;;;17.07;51.17;98409.03;4798608;29;102561;-84
2021/11/08 03:14:43;;;;;;;;;6.00;5.00;;;;;17.06;50.80;98412.88;4822507;28;102306;-84
2021/11/08 03:17:14;;;;;;;;;4.00;4.00;;;;;17.06;50.68;98404.69;4824981;29;104046;-84
2021/11/08 03:19:43;;;;;;;;;5.00;5.00;;;;;17.05;50.57;98403.00;4804114;29;103535;-84
2021/11/08 03:22:14;;;;;;;;;5.33;5.33;;;;;17.07;50.26;98403.56;4817180;28;102699;-84
2021/11/08 03:24:45;;;;;;;;;5.00;5.00;;;;;17.06;50.53;98407.41;4820509;29;105207;-84
2021/11/08 03:27:30;;;;;;;;;4.67;4.00;;;;;17.06;50.34;98401.94;4817742;28;104078;-84
2021/11/08 03:29:58;;;;;;;;;4.00;4.00;;;;;17.05;51.06;98400.28;4817325;29;102490;-84
2021/11/08 03:32:26;;;;;;;;;4.67;4.00;;;;;17.05;50.92;98406.56;4820593;29;102510;-84
2021/11/08 03:35:02;;;;;;;;;4.33;4.00;;;;;17.04;50.33;98413.09;4822910;29;102337;-85
2021/11/08 03:37:35;;;;;;;;;5.00;4.33;;;;;17.05;50.96;98405.75;4798621;29;104139;-84
2021/11/08 03:40:04;;;;;;;;;5.33;5.00;;;;;17.05;50.81;98400.28;4820470;29;103864;-84
2021/11/08 03:42:31;;;;;;;;;4.67;3.33;;;;;17.03;50.47;98403.25;4807243;29;103019;-83
2021/11/08 03:44:59;;;;;;;;;5.00;4.00;;;;;17.04;51.21;98398.63;4799392;29;102490;-84
2021/11/08 03:47:30;;;;;;;;;5.00;4.33;;;;;17.03;50.93;98403.25;4801213;29;104505;-84
2021/11/08 03:49:59;;;;;;;;;8.33;5.00;;;;;17.02;50.90;98407.03;4802978;28;102671;-84
2021/11/08 03:52:26;;;;;;;;;5.00;5.00;;;;;17.02;50.26;98417.16;4817526;28;105070;-84
2021/11/08 03:54:55;;;;;;;;;5.00;5.00;;;;;17.01;51.11;98419.06;4807099;28;103548;-84
2021/11/08 03:57:22;;;;;;;;;4.00;4.00;;;;;17.01;50.43;98418.25;4814873;29;104374;-85
2021/11/08 03:59:51;;;;;;;;;4.67;4.67;;;;;17.00;50.27;98422.03;4813180;29;102485;-84
2021/11/08 04:02:21;;;;;;;;;5.67;4.33;;;;;17.00;51.24;98424.78;4821846;29;103860;-84
2021/11/08 04:04:50;;;;;;;;;3.33;2.00;;;;;17.01;51.09;98423.69;4826595;29;103370;-84
2021/11/08 04:07:19;;;;;;;;;4.00;4.00;;;;;16.99;50.39;98420.38;4818576;29;108100;-84
2021/11/08 04:09:46;;;;;;;;;4.33;4.00;;;;;16.98;51.26;98416.81;4815009;29;102336;-84
2021/11/08 04:12:14;;;;;;;;;5.33;3.67;;;;;16.98;50.73;98418.72;4815365;29;102615;-84
2021/11/08 04:14:43;;;;;;;;;4.00;3.33;;;;;16.98;51.02;98422.28;4817097;29;104430;-84
2021/11/08 04:17:10;;;;;;;;;5.33;4.00;;;;;16.96;50.63;98410.78;4820605;28;104176;-84
2021/11/08 04:19:37;;;;;;;;;3.33;2.67;;;;;16.97;50.25;98420.66;4826087;29;102410;-84
2021/11/08 04:22:05;;;;;;;;;4.33;4.33;;;;;16.96;50.58;98418.97;4811989;29;102481;-85
2021/11/08 04:24:32;;;;;;;;;4.00;4.00;;;;;16.95;50.94;98417.31;4827718;28;102527;-84
2021/11/08 04:26:59;;;;;;;;;4.00;4.00;;;;;16.94;51.33;98415.66;4817425;28;106861;-85
2021/11/08 04:29:26;;;;;;;;;4.33;4.33;;;;;16.93;50.85;98414.03;4826305;29;102490;-85
2021/11/08 04:31:55;;;;;;;;;4.00;4.00;;;;;16.93;50.47;98409.34;4828526;29;102542;-85
2021/11/08 04:34:33;;;;;;;;;5.00;5.00;;;;;16.91;50.88;98422.44;4823939;28;105296;-85
2021/11/08 04:44:54;;;;;;;;;7.67;4.00;;;;;16.91;50.95;98427.06;4821750;28;102526;-85
2021/11/08 04:55:45;;;;;;;;;5.00;4.00;;;;;16.90;51.19;98431.72;4828720;29;102705;-84
2021/11/08 04:58:54;;;;;;;;;3.00;3.00;;;;;16.89;50.57;98438.25;4831836;28;104079;-84
2021/11/08 05:28:31;;;;;;;;;3.00;2.67;;;;;16.87;50.88;98454.06;4823237;29;102611;-89
2021/11/08 05:30:59;;;;;;;;;6.33;6.00;;;;;16.86;50.71;98455.13;4796135;29;108615;-89
2021/11/08 05:33:26;;;;;;;;;4.00;4.00;;;;;16.86;50.78;98451.56;4771371;29;102594;-89
2021/11/08 05:35:54;;;;;;;;;3.00;3.00;;;;;16.86;50.62;98457.84;4778608;29;102536;-89
2021/11/08 05:38:21;;;;;;;;;4.00;3.00;;;;;16.86;51.13;98457.03;4829854;29;102649;-85
2021/11/08 05:40:48;;;;;;;;;3.00;3.00;;;;;16.85;51.09;98467.13;4809168;29;108768;-90
2021/11/08 05:43:15;;;;;;;;;5.33;3.67;;;;;16.85;50.43;98477.22;4821207;28;102984;-89
2021/11/08 05:45:42;;;;;;;;;4.33;4.00;;;;;16.83;50.38;98477.47;4820166;29;102327;-89
2021/11/08 05:48:09;;;;;;;;;5.00;5.00;;;;;16.83;50.41;98479.38;4818111;29;102134;-89
2021/11/08 05:50:40;;;;;;;;;5.67;4.33;;;;;16.83;50.58;98495.75;4830498;29;104017;-89
2021/11/08 05:53:10;;;;;;;;;4.00;4.00;;;;;16.81;50.37;98493.25;4811179;28;102210;-90
2021/11/08 05:59:05;;;;;;;;;3.67;3.00;;;;;16.82;51.49;98494.94;4811659;29;103808;-89
2021/11/08 06:47:51;;;;;;;;;4.00;4.00;;;;;16.84;50.84;98503.69;4818601;29;109380;-89
2021/11/08 06:51:50;;;;;;;;;3.67;3.67;;;;;16.78;50.88;98575.69;4823341;29;104998;-90
2021/11/08 06:54:19;;;;;;;;;3.00;3.00;;;;;16.79;50.97;98577.34;4819732;28;102519;-89
2021/11/08 06:57:49;;;;;;;;;6.00;4.67;;;;;16.77;50.61;98579.47;4804462;28;104073;-89
2021/11/08 06:59:47;;;;;;;;;4.00;4.00;;;;;16.74;50.80;98588.16;4811403;29;102589;-89
2021/11/08 07:02:14;;;;;;;;;3.33;3.33;;;;;16.74;51.17;98585.44;4823106;28;102552;-88
2021/11/08 07:04:41;;;;;;;;;5.33;5.00;;;;;16.75;50.98;98592.53;4766476;29;102172;-89
2021/11/08 07:07:09;;;;;;;;;4.33;3.00;;;;;16.77;50.79;98595.03;4813549;29;104110;-89
2021/11/08 07:09:38;;;;;;;;;4.00;3.00;;;;;16.73;50.43;98593.84;4813195;29;102629;-89
2021/11/08 07:12:07;;;;;;;;;5.00;4.67;;;;;16.74;50.87;98604.53;4789895;29;102456;-89
2021/11/08 07:14:34;;;;;;;;;3.67;3.33;;;;;16.75;50.14;98597.19;4828420;29;102689;-89
2021/11/08 07:17:01;;;;;;;;;4.33;4.00;;;;;16.74;50.61;98604.53;4821659;29;103088;-89
2021/11/08 07:19:28;;;;;;;;;4.00;3.00;;;;;16.75;50.86;98608.09;4820338;28;102544;-89
2021/11/08 07:21:56;;;;;;;;;4.00;4.00;;;;;16.76;50.31;98616.03;4825150;29;102476;-88
2021/11/08 07:24:24;;;;;;;;;5.33;3.67;;;;;16.76;50.28;98618.75;4831171;28;102326;-89
2021/11/08 07:26:51;;;;;;;;;3.33;3.33;;;;;16.76;50.58;98616.03;4810288;28;107992;-88
2021/11/08 07:29:25;;;;;;;;;4.33;4.00;;;;;16.75;50.41;98617.09;4796807;29;102254;-90
2021/11/08 07:31:52;;;;;;;;;4.33;3.67;;;;;16.75;50.45;98614.38;4819121;29;102199;-89
2021/11/08 07:34:19;;;;;;;;;3.00;3.00;;;;;16.75;50.15;98608.09;4814923;28;102641;-89
2021/11/08 07:36:46;;;;;;;;;4.00;3.33;;;;;16.75;50.97;98614.38;4821940;28;105175;-89
2021/11/08 07:39:13;;;;;;;;;4.00;4.00;;;;;16.74;50.18;98601.81;4824540;29;103019;-89
2021/11/08 07:41:40;;;;;;;;;4.00;4.00;;;;;16.74;50.32;98607.28;4819747;28;102134;-89
2021/11/08 07:44:08;;;;;;;;;5.00;4.00;;;;;16.74;50.34;98612.72;4822135;29;107361;-89
2021/11/08 07:46:36;;;;;;;;;5.00;3.67;;;;;16.74;50.60;98607.28;4825219;29;104093;-89
2021/11/08 07:49:03;;;;;;;;;4.00;4.00;;;;;16.75;50.64;98614.38;4823338;29;102199;-89
2021/11/08 07:51:30;;;;;;;;;5.00;4.00;;;;;16.75;50.87;98614.38;4799306;29;102166;-89
2021/11/08 07:53:57;;;;;;;;;3.67;3.33;;;;;16.74;50.41;98618.19;4827796;28;103141;-89
2021/11/08 07:56:24;;;;;;;;;5.33;4.00;;;;;16.74;50.59;98609.16;4824289;28;104117;-88
2021/11/08 07:58:51;;;;;;;;;4.00;3.67;;;;;16.74;49.96;98615.47;4828644;28;102190;-89
2021/11/08 08:01:18;;;;;;;;;4.00;4.00;;;;;16.75;50.03;98613.56;4828747;29;103445;-89
2021/11/08 08:03:46;;;;;;;;;4.00;3.00;;;;;16.75;50.73;98611.63;4826994;28;102155;-89
2021/11/08 08:06:14;;;;;;;;;4.33;4.00;;;;;16.77;49.93;98606.78;4804019;29;104248;-89
2021/11/08 08:08:42;;;;;;;;;5.00;4.33;;;;;16.79;50.29;98614.75;4813658;29;102458;-89
2021/11/08 08:11:10;;;;;;;;;2.33;2.00;;;;;16.79;49.95;98615.56;4812298;29;104043;-89
2021/11/08 08:13:38;;;;;;;;;4.00;4.00;;;;;16.81;50.11;98618.88;4812394;29;103071;-89
2021/11/08 08:16:08;;;;;;;;;6.00;5.00;;;;;16.80;50.38;98628.13;4811071;29;104448;-89
2021/11/08 08:18:37;;;;;;;;;4.00;4.00;;;;;16.82;50.76;98625.19;4820972;28;102508;-89
2021/11/08 08:21:05;;;;;;;;;4.00;2.33;;;;;16.82;50.63;98633.38;4819203;29;102505;-89
2021/11/08 08:23:54;;;;;;;;;4.00;2.33;;;;;16.83;50.35;98630.41;4829772;29;102676;-89
2021/11/08 08:26:29;;;;;;;;;4.00;3.00;;;;;16.84;50.43;98629.31;4821431;29;109050;-89
2021/11/08 08:28:56;;;;;;;;;3.67;3.67;;;;;16.84;50.09;98639.44;4815448;29;102226;-88
2021/11/08 08:31:23;;;;;;;;;3.67;3.67;;;;;16.83;50.44;98638.59;4820595;29;102547;-89
2021/11/08 08:33:50;;;;;;;;;5.00;4.00;;;;;16.85;50.26;98638.34;4822467;29;102610;-89
2021/11/08 08:36:17;;;;;;;;;3.00;3.00;;;;;16.85;50.04;98644.63;4787872;29;104075;-88
2021/11/08 08:38:44;;;;;;;;;2.00;2.00;;;;;16.86;50.26;98637.28;4821139;29;102247;-89
2021/11/08 08:41:14;;;;;;;;;2.67;2.67;;;;;16.86;50.04;98635.38;4829897;29;102402;-89
2021/11/08 08:43:41;;;;;;;;;3.33;3.00;;;;;16.86;50.57;98649.03;4818930;29;102468;-89
2021/11/08 08:46:08;;;;;;;;;4.67;4.67;;;;;16.85;50.23;98647.38;4824458;29;104356;-89
2021/11/08 08:48:36;;;;;;;;;4.00;3.00;;;;;16.86;50.25;98651.75;4814513;29;102310;-89
2021/11/08 08:51:03;;;;;;;;;4.00;4.00;;;;;16.86;49.80;98654.50;4822856;29;102511;-89
2021/11/08 08:53:30;;;;;;;;;4.00;3.33;;;;;16.88;49.76;98663.28;4803566;29;103235;-89
2021/11/08 08:56:17;;;;;;;;;2.67;2.33;;;;;16.87;50.20;98660.78;4824445;29;104109;-89
2021/11/08 08:58:44;;;;;;;;;3.33;3.00;;;;;16.88;49.73;98659.72;4792177;29;103996;-89
2021/11/08 09:01:11;;;;;;;;;7.00;5.00;;;;;16.87;49.74;98658.91;4801768;29;102726;-89
2021/11/08 09:03:38;;;;;;;;;4.00;3.33;;;;;16.88;50.64;98663.28;4827522;28;102834;-89
2021/11/08 09:06:05;;;;;;;;;3.00;3.00;;;;;16.88;49.97;98662.47;4800401;29;104587;-89
2021/11/08 09:08:32;;;;;;;;;3.33;3.00;;;;;16.88;50.30;98665.19;4811089;29;102400;-89
2021/11/08 09:10:59;;;;;;;;;2.00;2.00;;;;;16.89;49.96;98667.66;4806384;29;103278;-89
2021/11/08 09:13:26;;;;;;;;;2.00;2.00;;;;;16.88;49.87;98663.28;4830894;28;105510;-86
2021/11/08 09:15:59;;;;;;;;;2.33;2.33;;;;;16.88;50.24;98666.03;4820381;29;103091;-89
2021/11/08 09:18:27;;;;;;;;;4.67;4.00;;;;;16.88;49.70;98674.22;4826467;28;104775;-87
2021/11/08 09:20:54;;;;;;;;;3.00;3.00;;;;;16.89;49.29;98670.41;4831267;29;102424;-89
2021/11/08 09:23:21;;;;;;;;;3.00;2.67;;;;;16.90;49.92;98674.78;4812509;29;102730;-89
2021/11/08 09:25:48;;;;;;;;;3.00;2.67;;;;;16.90;50.39;98672.06;4816172;28;104085;-89
2021/11/08 09:28:15;;;;;;;;;2.33;2.33;;;;;16.90;50.39;98671.22;4809115;28;102624;-89
2021/11/08 09:30:44;;;;;;;;;3.00;3.00;;;;;16.89;50.41;98675.84;4818543;28;102995;-89
2021/11/08 09:33:11;;;;;;;;;5.00;3.67;;;;;16.90;49.81;98677.53;4807567;29;102614;-89
2021/11/08 09:35:44;;;;;;;;;3.00;3.00;;;;;16.90;49.78;98680.25;4825785;29;104092;-89
2021/11/08 09:38:11;;;;;;;;;3.33;3.00;;;;;16.90;49.98;98683.00;4816673;28;102516;-89
2021/11/08 09:40:39;;;;;;;;;3.00;3.00;;;;;16.90;49.51;98680.25;4818388;28;102453;-89
2021/11/08 09:43:11;;;;;;;;;2.33;2.33;;;;;16.90;49.52;98695.81;4812021;28;103608;-89
2021/11/08 09:45:39;;;;;;;;;3.00;3.00;;;;;16.88;50.10;98690.59;4810879;29;104354;-89
2021/11/08 09:48:06;;;;;;;;;4.67;3.00;;;;;16.89;50.29;98675.84;4805152;29;103199;-89
2021/11/08 09:50:34;;;;;;;;;3.00;3.00;;;;;16.89;49.98;98691.41;4820228;29;102171;-89
2021/11/08 09:53:02;;;;;;;;;2.00;2.00;;;;;16.91;50.03;98689.28;4793028;29;102310;-89
2021/11/08 09:55:29;;;;;;;;;2.00;2.00;;;;;16.90;49.79;98691.19;4803469;29;104073;-89
2021/11/08 09:57:56;;;;;;;;;3.00;3.00;;;;;16.91;49.97;98694.75;4827612;29;102642;-89
2021/11/08 10:00:36;;;;;;;;;2.00;2.00;;;;;16.92;50.07;98694.53;4823851;28;102517;-89
2021/11/08 10:03:08;;;;;;;;;2.00;2.00;;;;;16.92;50.41;98697.25;4798071;29;102693;-89
2021/11/08 10:05:39;;;;;;;;;3.00;2.33;;;;;16.93;49.55;98698.09;4828190;28;104101;-89
2021/11/08 10:08:29;;;;;;;;;5.00;2.00;;;;;16.92;50.38;98697.25;4825205;29;102473;-90
2021/11/08 10:10:59;;;;;;;;;4.00;3.00;;;;;16.93;49.82;98701.63;4816393;29;103582;-89
2021/11/08 10:13:28;;;;;;;;;3.00;3.00;;;;;16.92;50.18;98705.44;4822932;29;105437;-89
2021/11/08 10:16:01;;;;;;;;;3.00;3.00;;;;;16.92;49.40;98715.53;4826523;29;107680;-89
2021/11/08 10:18:29;;;;;;;;;2.00;2.00;;;;;16.92;49.70;98708.19;4801827;29;102414;-89
2021/11/08 10:21:05;;;;;;;;;3.00;3.00;;;;;16.91;49.97;98714.69;4800441;29;102560;-87
2021/11/08 10:23:34;;;;;;;;;2.00;2.00;;;;;16.92;49.86;98712.81;4819755;29;102381;-89
2021/11/08 10:26:05;;;;;;;;;3.67;3.67;;;;;16.92;49.29;98704.59;4818822;28;104159;-89
2021/11/08 10:28:32;;;;;;;;;5.00;3.00;;;;;16.91;49.88;98711.13;4817053;28;102555;-89
2021/11/08 10:31:15;;;;;;;;;2.00;2.00;;;;;16.91;50.01;98711.97;4816265;28;102614;-88
2021/11/08 10:33:43;;;;;;;;;3.00;2.67;;;;;16.91;50.19;98708.41;4815786;29;102810;-89
2021/11/08 10:36:17;;;;;;;;;2.00;2.00;;;;;16.91;50.13;98706.50;4812947;29;103281;-89
2021/11/08 10:38:46;;;;;;;;;2.00;2.00;;;;;16.91;50.27;98701.03;4804144;28;102551;-90
2021/11/08 10:41:26;;;;;;;;;3.00;2.00;;;;;16.91;49.77;98706.50;4818211;29;103964;-89
2021/11/08 10:44:07;;;;;;;;;3.00;2.33;;;;;16.91;49.70;98706.50;4822911;28;102576;-89
2021/11/08 10:46:41;;;;;;;;;4.33;1.67;;;;;16.91;49.97;98703.78;4815341;28;108115;-90
2021/11/08 10:49:10;;;;;;;;;2.00;2.00;;;;;16.91;50.27;98709.25;4789174;29;103692;-85
2021/11/08 10:51:38;;;;;;;;;2.33;2.33;;;;;16.90;49.45;98715.75;4821281;29;102731;-85
2021/11/08 10:54:07;;;;;;;;;2.00;2.00;;;;;16.90;49.75;98709.47;4824110;28;102643;-85
2021/11/08 10:56:41;;;;;;;;;2.67;2.00;;;;;16.91;49.81;98708.41;4813322;29;104056;-89
2021/11/08 10:59:15;;;;;;;;;2.67;2.00;;;;;16.90;50.15;98715.75;4824307;28;102548;-89
2021/11/08 11:01:49;;;;;;;;;3.00;3.00;;;;;16.90;49.29;98713.03;4818621;28;102487;-89
2021/11/08 11:04:17;;;;;;;;;2.33;2.00;;;;;16.89;49.69;98725.03;4814713;29;102876;-90
2021/11/08 11:06:45;;;;;;;;;3.33;2.33;;;;;16.89;49.06;98716.00;4809735;29;104255;-90
2021/11/08 11:09:20;;;;;;;;;2.00;2.00;;;;;16.88;49.39;98717.91;4823208;29;102754;-89
2021/11/08 11:12:23;;;;;;;;;2.00;2.00;;;;;16.89;49.93;98713.25;4799780;29;102994;-89
2021/11/08 11:15:03;;;;;;;;;2.67;2.00;;;;;16.89;50.25;98710.53;4812025;29;102650;-89
2021/11/08 11:17:32;;;;;;;;;2.00;2.00;;;;;16.87;49.28;98704.50;4805175;29;109345;-88
2021/11/08 11:20:17;;;;;;;;;2.00;2.00;;;;;16.89;50.30;98714.09;4803147;29;102622;-90
2021/11/08 11:23:50;;;;;;;;;2.00;2.00;;;;;16.90;49.48;98725.84;4816987;28;102335;-89
2021/11/08 11:26:04;;;;;;;;;3.00;2.00;;;;;16.88;49.24;98709.72;4801129;28;103345;-89
2021/11/08 11:28:37;;;;;;;;;2.33;2.33;;;;;16.88;49.59;98715.19;4794968;29;109510;-89
2021/11/08 11:31:12;;;;;;;;;1.67;1.00;;;;;16.89;50.11;98707.78;4784364;29;103788;-89
2021/11/08 11:33:39;;;;;;;;;2.00;2.00;;;;;16.88;49.31;98704.25;4814068;28;102913;-89
2021/11/08 11:36:11;;;;;;;;;2.00;1.00;;;;;16.88;49.49;98709.72;4805000;29;102150;-90
2021/11/08 11:38:48;;;;;;;;;2.00;2.00;;;;;16.88;49.83;98717.91;4819830;29;103789;-89
2021/11/08 11:41:17;;;;;;;;;2.00;2.00;;;;;16.88;49.30;98717.09;4810902;28;103175;-90
2021/11/08 11:43:47;;;;;;;;;1.67;1.67;;;;;16.87;49.66;98708.06;4805653;28;102515;-89
2021/11/08 11:46:24;;;;;;;;;3.00;2.00;;;;;16.86;49.79;98711.84;4825728;28;102569;-89
2021/11/08 11:48:52;;;;;;;;;2.00;2.00;;;;;16.87;49.82;98704.50;4813439;29;104471;-89
2021/11/08 11:51:26;;;;;;;;;2.00;2.00;;;;;16.87;48.91;98704.50;4808095;29;102494;-89
2021/11/08 11:53:54;;;;;;;;;2.67;1.67;;;;;16.87;49.57;98699.03;4827417;29;104026;-89
2021/11/08 11:56:24;;;;;;;;;3.00;2.00;;;;;16.86;49.49;98703.66;4816267;28;102611;-89
2021/11/08 11:58:51;;;;;;;;;3.00;2.00;;;;;16.86;49.60;98705.56;4813992;28;102956;-89
2021/11/08 12:01:21;;;;;;;;;3.00;2.00;;;;;16.86;49.55;98703.66;4822687;29;110167;-89
2021/11/08 12:03:48;;;;;;;;;1.00;1.00;;;;;16.87;49.44;98701.75;4769313;29;102710;-89
2021/11/08 12:06:17;;;;;;;;;2.67;2.67;;;;;16.87;49.21;98701.75;4804679;29;103038;-89
2021/11/08 12:08:46;;;;;;;;;2.00;2.00;;;;;16.87;49.71;98708.06;4815641;28;103738;-89
2021/11/08 12:11:14;;;;;;;;;2.00;2.00;;;;;16.87;49.82;98709.94;4806705;29;102378;-90
2021/11/08 12:13:53;;;;;;;;;1.33;1.00;;;;;16.85;49.28;98707.44;4817868;29;103361;-90
2021/11/08 12:16:26;;;;;;;;;2.00;2.00;;;;;16.87;49.45;98712.69;4823719;28;103765;-89
2021/11/08 12:18:53;;;;;;;;;2.00;2.00;;;;;16.86;50.25;98714.59;4822615;29;104378;-89
2021/11/08 12:21:25;;;;;;;;;2.00;2.00;;;;;16.85;49.39;98712.06;4803827;29;103523;-89
2021/11/08 12:23:53;;;;;;;;;3.00;2.00;;;;;16.84;49.79;98716.72;4808667;28;102081;-89
2021/11/08 12:26:25;;;;;;;;;2.67;2.00;;;;;16.84;49.01;98713.97;4829006;29;102668;-89
2021/11/08 12:29:21;;;;;;;;;2.33;2.00;;;;;16.84;49.83;98711.25;4819244;29;104181;-89
2021/11/08 12:32:11;;;;;;;;;2.00;2.00;;;;;16.84;49.49;98719.44;4804766;29;102237;-89
2021/11/08 12:34:41;;;;;;;;;2.00;2.00;;;;;16.83;50.24;98712.34;4819795;28;102199;-89
2021/11/08 12:37:08;;;;;;;;;3.00;1.67;;;;;16.83;49.96;98720.53;4824742;29;102712;-90
2021/11/08 12:39:36;;;;;;;;;2.00;2.00;;;;;16.84;49.95;98713.97;4821602;29;104026;-89
2021/11/08 12:42:10;;;;;;;;;2.00;2.00;;;;;16.84;49.81;98713.16;4824703;29;103054;-89
2021/11/08 12:44:41;;;;;;;;;2.00;2.00;;;;;16.84;50.16;98719.44;4813818;29;102669;-89
2021/11/08 12:47:11;;;;;;;;;1.00;1.00;;;;;16.84;49.66;98710.44;4825546;29;102506;-90
2021/11/08 12:49:41;;;;;;;;;2.00;2.00;;;;;16.84;49.35;98713.97;4814543;28;103789;-89
2021/11/08 12:52:14;;;;;;;;;1.33;1.00;;;;;16.84;50.21;98715.91;4824387;29;103113;-89
2021/11/08 12:54:53;;;;;;;;;2.00;2.00;;;;;16.83;50.04;98714.22;4808457;28;102157;-90
2021/11/08 12:57:24;;;;;;;;;2.33;2.33;;;;;16.83;50.15;98725.16;4809258;29;102652;-89
2021/11/08 13:00:18;;;;;;;;;1.00;1.00;;;;;16.80;49.44;98721.00;4824313;28;103122;-89
2021/11/08 13:02:56;;;;;;;;;2.00;2.00;;;;;16.81;49.64;98724.56;4822810;29;102401;-90
2021/11/08 13:05:26;;;;;;;;;2.00;1.67;;;;;16.79;49.89;98724.81;4816991;29;102089;-90
2021/11/08 13:07:55;;;;;;;;;2.00;2.00;;;;;16.79;49.67;98718.50;4821039;29;102611;-90
2021/11/08 13:10:26;;;;;;;;;2.00;2.00;;;;;16.79;49.45;98718.50;4808204;29;104874;-90
2021/11/08 13:12:54;;;;;;;;;1.67;1.67;;;;;16.80;49.36;98721.00;4812046;29;102628;-89
2021/11/08 13:15:31;;;;;;;;;3.00;3.00;;;;;16.80;49.74;98731.91;4814137;28;102196;-89